createdAt,value
2018-06-30T00:01:12.170Z,3.73
2018-06-30T00:03:46.050Z,2.83
2018-06-30T00:06:14.604Z,3.40
2018-06-30T00:08:43.219Z,6.07
2018-06-30T00:11:11.699Z,4.93
2018-06-30T00:13:40.200Z,7.43
2018-06-30T00:16:08.733Z,3.63
2018-06-30T00:18:37.266Z,6.07
2018-06-30T00:21:05.972Z,3.33
2018-06-30T00:23:34.165Z,5.60
2018-06-30T00:26:02.645Z,8.70
2018-06-30T00:28:31.159Z,6.23
2018-06-30T00:30:59.672Z,4.13
2018-06-30T00:33:28.252Z,5.20
2018-06-30T00:35:56.773Z,4.73
2018-06-30T00:38:25.407Z,8.43
2018-06-30T00:40:54.272Z,3.40
2018-06-30T00:43:22.480Z,3.33
2018-06-30T00:45:51.034Z,8.00
2018-06-30T00:48:19.285Z,5.67
2018-06-30T00:50:47.838Z,3.30
2018-06-30T00:53:16.432Z,2.77
2018-06-30T00:55:44.974Z,3.03
2018-06-30T00:58:13.773Z,4.07
2018-06-30T01:00:42.546Z,5.60
2018-06-30T01:03:11.523Z,4.50
2018-06-30T01:05:40.048Z,2.97
2018-06-30T01:08:08.580Z,3.80
2018-06-30T01:10:37.109Z,2.87
2018-06-30T01:13:05.406Z,5.73
2018-06-30T01:15:33.879Z,2.77
2018-06-30T01:18:02.387Z,4.83
2018-06-30T01:20:31.211Z,3.23
2018-06-30T01:22:59.760Z,3.10
2018-06-30T01:25:28.404Z,3.60
2018-06-30T01:30:26.489Z,3.37
2018-06-30T01:32:56.393Z,4.20
2018-06-30T01:35:24.960Z,2.70
2018-06-30T01:37:53.502Z,2.40
2018-06-30T01:40:22.026Z,3.80
2018-06-30T01:42:50.510Z,2.70
2018-06-30T01:45:19.028Z,3.10
2018-06-30T01:47:47.483Z,2.50
2018-06-30T01:50:16.556Z,2.70
2018-06-30T01:52:45.059Z,2.53
2018-06-30T01:55:13.248Z,6.63
2018-06-30T01:57:41.675Z,4.87
2018-06-30T02:00:10.174Z,4.60
2018-06-30T02:02:38.641Z,5.47
2018-06-30T02:05:07.110Z,8.67
2018-06-30T02:07:35.561Z,9.97
2018-06-30T02:10:03.738Z,10.90
2018-06-30T02:12:31.870Z,15.07
2018-06-30T02:15:00.307Z,14.13
2018-06-30T02:17:28.442Z,13.83
2018-06-30T02:19:56.920Z,11.27
2018-06-30T02:22:25.360Z,10.97
2018-06-30T02:24:53.812Z,11.53
2018-06-30T02:27:22.273Z,11.67
2018-06-30T02:29:50.722Z,7.30
2018-06-30T02:32:19.250Z,6.80
2018-06-30T02:34:47.720Z,6.73
2018-06-30T02:37:16.171Z,5.77
2018-06-30T02:39:44.603Z,5.53
2018-06-30T02:42:13.050Z,6.07
2018-06-30T02:44:41.535Z,4.53
2018-06-30T02:47:10.024Z,4.03
2018-06-30T02:49:38.468Z,2.80
2018-06-30T02:52:07.039Z,4.60
2018-06-30T02:54:35.245Z,2.50
2018-06-30T02:57:03.761Z,2.40
2018-06-30T02:59:32.217Z,2.70
2018-06-30T03:02:00.704Z,2.27
2018-06-30T03:04:29.171Z,2.37
2018-06-30T03:06:57.714Z,3.33
2018-06-30T03:09:26.136Z,3.77
2018-06-30T03:11:54.590Z,2.60
2018-06-30T03:14:23.054Z,4.20
2018-06-30T03:16:51.529Z,1.80
2018-06-30T03:19:20.022Z,5.60
2018-06-30T03:21:48.452Z,2.00
2018-06-30T03:24:16.953Z,2.10
2018-06-30T03:26:45.395Z,2.13
2018-06-30T03:29:14.171Z,2.57
2018-06-30T03:31:42.727Z,1.63
2018-06-30T03:34:10.921Z,1.60
2018-06-30T03:36:39.167Z,1.90
2018-06-30T03:39:09.592Z,1.70
2018-06-30T03:41:38.059Z,1.60
2018-06-30T03:44:06.588Z,1.87
2018-06-30T03:46:35.038Z,5.00
2018-06-30T03:49:03.583Z,1.40
2018-06-30T03:51:32.055Z,1.80
2018-06-30T03:54:00.534Z,2.60
2018-06-30T03:56:28.983Z,1.70
2018-06-30T03:58:57.540Z,3.03
2018-06-30T04:01:25.991Z,1.70
2018-06-30T04:03:54.189Z,1.30
2018-06-30T04:06:22.636Z,2.00
2018-06-30T04:08:51.179Z,1.30
2018-06-30T04:11:19.642Z,1.13
2018-06-30T04:13:48.182Z,1.00
2018-06-30T04:16:16.631Z,3.67
2018-06-30T04:18:45.173Z,3.30
2018-06-30T04:21:13.620Z,2.37
2018-06-30T04:23:42.192Z,1.40
2018-06-30T04:26:10.666Z,0.97
2018-06-30T04:28:39.076Z,1.40
2018-06-30T04:31:07.585Z,0.80
2018-06-30T04:33:36.133Z,0.97
2018-06-30T04:36:04.632Z,1.90
2018-06-30T04:38:33.066Z,1.10
2018-06-30T04:41:01.715Z,3.63
2018-06-30T04:43:30.215Z,0.93
2018-06-30T04:45:58.692Z,2.00
2018-06-30T04:48:27.144Z,0.90
2018-06-30T04:50:55.664Z,0.93
2018-06-30T04:53:24.158Z,1.03
2018-06-30T04:55:52.672Z,1.40
2018-06-30T04:58:21.115Z,0.80
2018-06-30T05:00:49.672Z,2.37
2018-06-30T05:03:18.132Z,0.97
2018-06-30T05:05:46.280Z,0.73
2018-06-30T05:08:14.788Z,0.80
2018-06-30T05:10:43.316Z,1.63
2018-06-30T05:13:11.944Z,0.80
2018-06-30T05:15:40.388Z,0.93
2018-06-30T05:18:09.017Z,0.90
2018-06-30T05:20:37.488Z,0.83
2018-06-30T05:23:05.968Z,1.03
2018-06-30T05:25:34.454Z,2.53
2018-06-30T05:28:02.886Z,2.57
2018-06-30T05:30:31.367Z,0.90
2018-06-30T05:32:59.956Z,1.30
2018-06-30T05:35:28.482Z,0.60
2018-06-30T05:37:56.984Z,1.03
2018-06-30T05:40:25.493Z,1.00
2018-06-30T05:42:54.018Z,1.93
2018-06-30T05:45:22.528Z,0.97
2018-06-30T05:47:50.978Z,0.63
2018-06-30T05:50:19.469Z,0.67
2018-06-30T05:52:48.066Z,2.47
2018-06-30T05:55:16.542Z,0.87
2018-06-30T05:57:44.734Z,2.13
2018-06-30T06:00:13.304Z,0.60
2018-06-30T06:02:41.832Z,0.87
2018-06-30T06:05:10.308Z,1.33
2018-06-30T06:07:38.753Z,0.80
2018-06-30T06:10:07.269Z,2.23
2018-06-30T06:12:35.766Z,0.80
2018-06-30T06:15:04.604Z,1.03
2018-06-30T06:17:33.026Z,1.27
2018-06-30T06:20:01.264Z,1.70
2018-06-30T06:22:29.826Z,1.03
2018-06-30T06:24:58.330Z,0.77
2018-06-30T06:27:26.863Z,0.70
2018-06-30T06:29:55.520Z,0.60
2018-06-30T06:32:24.025Z,0.70
2018-06-30T06:34:52.502Z,0.80
2018-06-30T06:37:20.938Z,1.77
2018-06-30T06:39:49.456Z,0.70
2018-06-30T06:42:17.988Z,0.83
2018-06-30T06:44:46.171Z,0.73
2018-06-30T06:47:14.656Z,0.50
2018-06-30T06:49:43.166Z,0.67
2018-06-30T06:52:11.636Z,0.60
2018-06-30T06:54:40.415Z,0.87
2018-06-30T06:57:09.191Z,1.13
2018-06-30T06:59:37.825Z,1.70
2018-06-30T07:02:06.345Z,0.77
2018-06-30T07:04:34.766Z,0.63
2018-06-30T07:07:03.403Z,0.67
2018-06-30T07:09:31.860Z,1.03
2018-06-30T07:12:00.361Z,0.63
2018-06-30T07:14:28.842Z,1.40
2018-06-30T07:16:57.322Z,0.57
2018-06-30T07:19:25.754Z,1.80
2018-06-30T07:21:54.262Z,1.00
2018-06-30T07:24:22.698Z,2.43
2018-06-30T07:26:51.127Z,1.37
2018-06-30T07:29:19.604Z,0.70
2018-06-30T07:31:48.061Z,2.20
2018-06-30T07:34:16.555Z,0.50
2018-06-30T07:36:45.063Z,4.77
2018-06-30T07:39:13.525Z,0.67
2018-06-30T07:41:42.206Z,0.70
2018-06-30T07:44:10.694Z,2.97
2018-06-30T07:46:39.117Z,0.70
2018-06-30T07:49:07.591Z,0.80
2018-06-30T07:51:36.047Z,1.33
2018-06-30T07:54:04.520Z,2.80
2018-06-30T07:56:32.946Z,2.73
2018-06-30T07:59:01.534Z,0.60
2018-06-30T08:01:29.954Z,0.90
2018-06-30T08:03:58.464Z,1.27
2018-06-30T08:06:26.916Z,0.77
2018-06-30T08:08:55.396Z,3.80
2018-06-30T08:11:23.550Z,0.77
2018-06-30T08:13:52.103Z,1.67
2018-06-30T08:16:20.579Z,0.90
2018-06-30T08:18:49.458Z,0.80
2018-06-30T08:21:18.733Z,2.00
2018-06-30T08:23:46.910Z,0.63
2018-06-30T08:26:15.536Z,0.57
2018-06-30T08:28:44.083Z,0.77
2018-06-30T08:31:12.513Z,3.10
2018-06-30T08:33:41.622Z,0.60
2018-06-30T08:36:10.843Z,0.80
2018-06-30T08:38:39.671Z,1.90
2018-06-30T08:41:09.689Z,1.43
2018-06-30T08:43:38.397Z,0.70
2018-06-30T08:46:07.685Z,1.13
2018-06-30T08:48:35.891Z,0.70
2018-06-30T08:51:04.392Z,0.70
2018-06-30T08:53:32.860Z,0.70
2018-06-30T08:56:01.320Z,0.60
2018-06-30T08:58:29.856Z,0.50
2018-06-30T09:00:58.372Z,2.43
2018-06-30T09:03:26.846Z,1.30
2018-06-30T09:05:55.358Z,0.70
2018-06-30T09:08:23.544Z,2.77
2018-06-30T09:10:52.030Z,0.60
2018-06-30T09:13:20.207Z,1.80
2018-06-30T09:15:48.703Z,1.33
2018-06-30T09:18:16.878Z,0.97
2018-06-30T09:20:45.050Z,0.70
2018-06-30T09:23:13.525Z,2.97
2018-06-30T09:25:42.043Z,0.43
2018-06-30T09:28:10.520Z,2.43
2018-06-30T09:30:39.044Z,0.93
2018-06-30T09:33:07.542Z,0.70
2018-06-30T09:35:36.001Z,0.90
2018-06-30T09:38:04.747Z,0.67
2018-06-30T09:40:33.356Z,1.40
2018-06-30T09:43:01.860Z,0.83
2018-06-30T09:45:30.358Z,0.80
2018-06-30T09:47:58.911Z,0.70
2018-06-30T09:50:27.057Z,1.70
2018-06-30T09:52:55.742Z,0.80
2018-06-30T09:55:24.194Z,0.90
2018-06-30T09:57:52.654Z,0.77
2018-06-30T10:00:26.635Z,0.70
2018-06-30T10:05:28.280Z,0.77
2018-06-30T10:07:56.755Z,0.80
2018-06-30T10:10:25.204Z,1.00
2018-06-30T10:12:53.386Z,0.87
2018-06-30T10:15:21.586Z,0.80
2018-06-30T10:17:50.073Z,1.37
2018-06-30T10:20:18.521Z,0.70
2018-06-30T10:22:47.011Z,2.07
2018-06-30T10:25:15.435Z,5.30
2018-06-30T10:27:43.888Z,0.87
2018-06-30T10:30:12.350Z,1.40
2018-06-30T10:32:40.813Z,0.57
2018-06-30T10:35:09.303Z,1.10
2018-06-30T10:37:37.734Z,0.80
2018-06-30T10:40:05.979Z,0.80
2018-06-30T10:42:34.507Z,0.90
2018-06-30T10:45:02.938Z,5.60
2018-06-30T10:47:31.396Z,0.53
2018-06-30T10:49:59.991Z,7.20
2018-06-30T10:52:28.454Z,2.00
2018-06-30T10:54:56.990Z,11.03
2018-06-30T10:57:25.463Z,1.60
2018-06-30T10:59:53.997Z,1.00
2018-06-30T11:02:22.142Z,2.13
2018-06-30T11:04:50.670Z,3.80
2018-06-30T11:07:18.805Z,12.40
2018-06-30T11:09:47.281Z,8.27
2018-06-30T11:12:15.739Z,29.37
2018-06-30T11:14:44.238Z,11.90
2018-06-30T11:17:12.720Z,1.50
2018-06-30T11:19:41.195Z,2.53
2018-06-30T11:22:09.713Z,0.83
2018-06-30T11:24:38.167Z,1.33
2018-06-30T11:27:06.656Z,2.83
2018-06-30T11:29:35.222Z,0.60
2018-06-30T11:32:03.639Z,1.17
2018-06-30T11:34:32.201Z,1.90
2018-06-30T11:37:00.694Z,1.00
2018-06-30T11:39:29.192Z,0.93
2018-06-30T11:41:57.642Z,1.00
2018-06-30T11:44:26.095Z,1.80
2018-06-30T11:46:54.596Z,1.07
2018-06-30T11:49:23.798Z,0.90
2018-06-30T11:51:53.770Z,3.70
2018-06-30T11:54:22.929Z,0.70
2018-06-30T11:56:52.344Z,1.27
2018-06-30T11:59:20.542Z,0.90
2018-06-30T12:01:49.007Z,0.80
2018-06-30T12:04:17.163Z,0.70
2018-06-30T12:06:45.660Z,0.70
2018-06-30T12:09:14.153Z,0.90
2018-06-30T12:11:42.595Z,0.80
2018-06-30T12:14:11.034Z,0.90
2018-06-30T12:16:39.885Z,0.80
2018-06-30T12:19:08.356Z,1.90
2018-06-30T12:21:36.930Z,0.83
2018-06-30T12:24:05.375Z,0.73
2018-06-30T12:26:34.741Z,1.13
2018-06-30T12:29:03.894Z,0.80
2018-06-30T12:31:33.123Z,0.70
2018-06-30T12:34:02.288Z,0.80
2018-06-30T12:36:31.085Z,4.33
2018-06-30T12:38:59.577Z,0.80
2018-06-30T12:41:28.534Z,0.90
2018-06-30T12:43:58.054Z,1.00
2018-06-30T12:46:28.154Z,0.90
2018-06-30T12:48:56.514Z,1.23
2018-06-30T12:51:26.878Z,2.20
2018-06-30T12:54:01.480Z,1.00
2018-06-30T12:56:32.745Z,0.70
2018-06-30T12:59:02.802Z,0.90
2018-06-30T13:01:32.211Z,0.80
2018-06-30T13:04:00.974Z,1.40
2018-06-30T13:06:30.217Z,1.00
2018-06-30T13:08:59.063Z,1.40
2018-06-30T13:11:27.856Z,4.03
2018-06-30T13:13:56.645Z,0.80
2018-06-30T13:16:25.188Z,0.80
2018-06-30T13:18:53.771Z,0.70
2018-06-30T13:21:22.189Z,1.43
2018-06-30T13:23:50.723Z,0.70
2018-06-30T13:26:19.513Z,0.80
2018-06-30T13:28:48.383Z,0.73
2018-06-30T13:31:16.880Z,0.77
2018-06-30T13:33:45.346Z,0.70
2018-06-30T13:36:13.813Z,2.40
2018-06-30T13:38:42.269Z,1.03
2018-06-30T13:41:10.740Z,0.90
2018-06-30T13:43:39.225Z,0.70
2018-06-30T13:46:07.775Z,1.20
2018-06-30T13:48:36.441Z,0.93
2018-06-30T13:51:04.916Z,1.70
2018-06-30T13:53:33.401Z,0.67
2018-06-30T13:56:01.906Z,1.90
2018-06-30T13:58:30.372Z,0.80
2018-06-30T14:00:59.092Z,0.90
2018-06-30T14:03:27.940Z,0.80
2018-06-30T14:05:56.432Z,0.70
2018-06-30T14:08:24.848Z,1.03
2018-06-30T14:10:53.376Z,0.83
2018-06-30T14:13:21.963Z,3.90
2018-06-30T14:15:50.552Z,1.37
2018-06-30T14:18:19.475Z,1.00
2018-06-30T14:20:47.869Z,2.27
2018-06-30T14:23:16.371Z,1.03
2018-06-30T14:25:44.954Z,0.90
2018-06-30T14:28:13.522Z,1.03
2018-06-30T14:30:42.195Z,3.10
2018-06-30T14:33:11.028Z,1.57
2018-06-30T14:35:39.925Z,2.27
2018-06-30T14:38:09.534Z,1.73
2018-06-30T14:40:38.541Z,1.13
2018-06-30T14:43:07.014Z,0.90
2018-06-30T14:45:35.519Z,2.07
2018-06-30T14:48:03.993Z,1.50
2018-06-30T14:50:32.999Z,1.83
2018-06-30T14:53:01.657Z,0.60
2018-06-30T14:55:30.153Z,0.60
2018-06-30T14:57:58.948Z,0.83
2018-06-30T15:00:27.444Z,0.80
2018-06-30T15:02:56.161Z,1.17
2018-06-30T15:05:24.744Z,0.90
2018-06-30T15:07:53.247Z,0.90
2018-06-30T15:10:21.794Z,1.00
2018-06-30T15:12:50.302Z,1.30
2018-06-30T15:15:18.886Z,2.23
2018-06-30T15:17:47.433Z,1.33
2018-06-30T15:20:16.323Z,0.90
2018-06-30T15:22:45.063Z,1.20
2018-06-30T15:25:13.558Z,1.27
2018-06-30T15:27:42.072Z,0.80
2018-06-30T15:30:10.600Z,0.90
2018-06-30T15:32:39.055Z,3.70
2018-06-30T15:35:07.239Z,1.30
2018-06-30T15:37:35.775Z,1.00
2018-06-30T15:40:05.059Z,0.80
2018-06-30T15:42:33.565Z,0.70
2018-06-30T15:45:02.022Z,3.60
2018-06-30T15:47:30.465Z,1.90
2018-06-30T15:49:58.937Z,1.53
2018-06-30T15:52:27.418Z,1.80
2018-06-30T15:54:56.030Z,1.30
2018-06-30T15:57:24.491Z,1.97
2018-06-30T15:59:52.979Z,0.97
2018-06-30T16:02:21.468Z,1.07
2018-06-30T16:04:49.938Z,1.10
2018-06-30T16:07:18.363Z,1.03
2018-06-30T16:09:46.687Z,0.90
2018-06-30T16:12:15.272Z,0.93
2018-06-30T16:14:43.746Z,1.70
2018-06-30T16:17:12.223Z,3.80
2018-06-30T16:19:40.722Z,1.53
2018-06-30T16:22:09.187Z,0.90
2018-06-30T16:24:37.650Z,1.17
2018-06-30T16:27:06.114Z,2.63
2018-06-30T16:29:34.629Z,3.10
2018-06-30T16:32:04.220Z,1.10
2018-06-30T16:34:32.765Z,1.20
2018-06-30T16:37:01.240Z,1.20
2018-06-30T16:39:29.717Z,2.10
2018-06-30T16:41:58.224Z,1.33
2018-06-30T16:44:26.739Z,0.83
2018-06-30T16:46:55.328Z,1.07
2018-06-30T16:49:23.644Z,1.70
2018-06-30T16:51:52.132Z,1.10
2018-06-30T16:54:20.763Z,0.97
2018-06-30T16:56:49.202Z,1.83
2018-06-30T16:59:17.346Z,1.07
2018-06-30T17:01:45.874Z,2.23
2018-06-30T17:04:14.350Z,1.10
2018-06-30T17:06:42.723Z,1.00
2018-06-30T17:09:12.815Z,1.60
2018-06-30T17:11:41.319Z,3.60
2018-06-30T17:14:09.878Z,1.40
2018-06-30T17:16:38.352Z,1.00
2018-06-30T17:19:06.915Z,2.27
2018-06-30T17:21:35.722Z,1.27
2018-06-30T17:24:04.651Z,1.10
2018-06-30T17:26:33.113Z,3.07
2018-06-30T17:29:01.597Z,1.20
2018-06-30T17:31:30.061Z,0.90
2018-06-30T17:33:58.613Z,1.27
2018-06-30T17:36:27.114Z,0.70
2018-06-30T17:38:55.634Z,1.00
2018-06-30T17:41:24.098Z,0.97
2018-06-30T17:43:52.754Z,0.80
2018-06-30T17:46:21.306Z,1.80
2018-06-30T17:48:49.806Z,0.63
2018-06-30T17:51:18.258Z,0.73
2018-06-30T17:53:46.831Z,2.33
2018-06-30T17:56:14.983Z,1.00
2018-06-30T17:58:43.443Z,2.17
2018-06-30T18:01:11.979Z,1.10
2018-06-30T18:03:40.469Z,0.80
2018-06-30T18:06:09.088Z,0.63
2018-06-30T18:08:37.702Z,1.37
2018-06-30T18:11:06.305Z,2.10
2018-06-30T18:13:34.814Z,1.60
2018-06-30T18:16:03.331Z,1.20
2018-06-30T18:18:36.130Z,0.80
2018-06-30T18:21:04.833Z,0.60
2018-06-30T18:23:33.263Z,1.00
2018-06-30T18:26:01.736Z,0.60
2018-06-30T18:28:29.946Z,0.80
2018-06-30T18:30:58.429Z,0.60
2018-06-30T18:33:27.402Z,1.30
2018-06-30T18:35:55.586Z,1.70
2018-06-30T18:38:23.814Z,1.17
2018-06-30T18:40:52.269Z,1.60
2018-06-30T18:43:20.716Z,1.83
2018-06-30T18:45:49.204Z,1.63
2018-06-30T18:48:17.637Z,2.30
2018-06-30T18:50:46.165Z,1.67
2018-06-30T18:53:14.612Z,1.53
2018-06-30T18:55:43.274Z,1.37
2018-06-30T18:58:11.775Z,1.70
2018-06-30T19:00:40.390Z,1.47
2018-06-30T19:03:08.974Z,1.17
2018-06-30T19:05:37.489Z,0.93
2018-06-30T19:08:06.032Z,1.37
2018-06-30T19:10:34.494Z,0.80
2018-06-30T19:13:02.766Z,0.70
2018-06-30T19:15:30.964Z,0.80
2018-06-30T19:17:59.544Z,0.80
2018-06-30T19:20:27.823Z,1.60
2018-06-30T19:22:56.352Z,0.60
2018-06-30T19:25:24.822Z,0.87
2018-06-30T19:27:53.370Z,0.90
2018-06-30T19:30:21.563Z,0.80
2018-06-30T19:32:49.870Z,1.47
2018-06-30T19:35:18.471Z,0.90
2018-06-30T19:37:47.298Z,2.00
2018-06-30T19:40:15.775Z,1.10
2018-06-30T19:42:44.284Z,1.17
2018-06-30T19:45:12.470Z,0.90
2018-06-30T19:47:40.645Z,1.00
2018-06-30T19:50:08.826Z,0.87
2018-06-30T19:52:37.041Z,0.80
2018-06-30T19:55:05.611Z,1.30
2018-06-30T19:57:34.110Z,0.80
2018-06-30T20:00:02.622Z,0.70
2018-06-30T20:02:31.104Z,1.60
2018-06-30T20:04:59.586Z,3.23
2018-06-30T20:07:28.123Z,1.00
2018-06-30T20:09:56.341Z,0.80
2018-06-30T20:12:24.804Z,0.70
2018-06-30T20:14:53.357Z,1.47
2018-06-30T20:17:21.840Z,3.47
2018-06-30T20:19:50.565Z,1.00
2018-06-30T20:22:18.829Z,1.23
2018-06-30T20:24:47.295Z,3.13
2018-06-30T20:27:15.788Z,1.43
2018-06-30T20:29:44.271Z,1.20
2018-06-30T20:32:12.749Z,3.23
2018-06-30T20:34:41.247Z,2.20
2018-06-30T20:37:09.797Z,1.70
2018-06-30T20:39:38.282Z,2.93
2018-06-30T20:42:06.779Z,1.07
2018-06-30T20:44:35.235Z,1.27
2018-06-30T20:47:03.697Z,1.70
2018-06-30T20:49:31.921Z,3.07
2018-06-30T20:52:00.500Z,0.90
2018-06-30T20:54:28.983Z,2.67
2018-06-30T20:56:57.662Z,0.90
2018-06-30T20:59:26.203Z,1.20
2018-06-30T21:01:54.828Z,1.00
2018-06-30T21:04:23.335Z,1.33
2018-06-30T21:06:51.924Z,1.00
2018-06-30T21:09:20.454Z,1.33
2018-06-30T21:11:48.927Z,1.43
2018-06-30T21:14:17.417Z,1.97
2018-06-30T21:16:45.935Z,1.60
2018-06-30T21:19:14.095Z,1.20
2018-06-30T21:21:42.661Z,1.50
2018-06-30T21:24:11.232Z,2.07
2018-06-30T21:26:39.791Z,4.00
2018-06-30T21:29:08.310Z,2.17
2018-06-30T21:31:36.814Z,1.60
2018-06-30T21:34:05.745Z,1.63
2018-06-30T21:36:34.361Z,1.40
2018-06-30T21:39:02.918Z,3.70
2018-06-30T21:41:31.370Z,2.33
2018-06-30T21:43:59.889Z,2.53
2018-06-30T21:46:29.449Z,1.53
2018-06-30T21:48:57.968Z,1.60
2018-06-30T21:51:26.477Z,2.00
2018-06-30T21:53:55.019Z,2.83
2018-06-30T21:56:23.563Z,1.40
2018-06-30T21:58:52.255Z,1.20
2018-06-30T22:01:25.050Z,1.40
2018-06-30T22:03:55.006Z,1.93
2018-06-30T22:06:23.428Z,2.63
2018-06-30T22:08:51.960Z,1.73
2018-06-30T22:11:20.498Z,1.47
2018-06-30T22:13:48.986Z,3.07
2018-06-30T22:16:17.148Z,1.90
2018-06-30T22:18:45.594Z,1.40
2018-06-30T22:21:14.079Z,1.60
2018-06-30T22:23:42.720Z,1.80
2018-06-30T22:26:11.338Z,2.33
2018-06-30T22:28:39.808Z,1.30
2018-06-30T22:31:08.439Z,1.33
2018-06-30T22:33:37.028Z,0.93
2018-06-30T22:36:05.828Z,1.30
2018-06-30T22:38:34.308Z,3.13
2018-06-30T22:41:02.916Z,1.23
2018-06-30T22:43:31.435Z,1.23
2018-06-30T22:45:59.959Z,1.83
2018-06-30T22:48:28.529Z,1.43
2018-06-30T22:50:57.053Z,1.03
2018-06-30T22:53:25.597Z,1.20
2018-06-30T22:55:54.262Z,2.17
2018-06-30T22:58:22.623Z,1.60
2018-06-30T23:00:51.186Z,1.03
2018-06-30T23:03:19.895Z,1.00
2018-06-30T23:05:48.483Z,1.20
2018-06-30T23:08:16.730Z,1.60
2018-06-30T23:10:45.259Z,1.47
2018-06-30T23:13:13.812Z,1.47
2018-06-30T23:15:42.443Z,3.70
2018-06-30T23:18:10.611Z,1.53
2018-06-30T23:20:39.139Z,1.50
2018-06-30T23:23:08.882Z,1.97
2018-06-30T23:25:37.992Z,1.40
2018-06-30T23:28:06.815Z,1.63
2018-06-30T23:30:35.166Z,1.37
2018-06-30T23:33:03.791Z,1.60
2018-06-30T23:35:33.165Z,2.30
2018-06-30T23:38:02.463Z,1.60
2018-06-30T23:40:30.995Z,1.20
2018-06-30T23:42:59.212Z,1.37
2018-06-30T23:45:27.795Z,1.17
2018-06-30T23:47:56.346Z,1.20
2018-06-30T23:50:24.537Z,1.00
2018-06-30T23:52:53.065Z,1.63
2018-06-30T23:55:21.686Z,1.50
2018-06-30T23:57:50.201Z,0.90
